Glendale Springs, NC

11:41 AM EDT on October 02, 2014 (GMT -0400)
Windview Manor | Change Station
CLOSE
Current Station
Personal Weather Station
Location: Glendale Springs, NC
Elevation: 3219 ft
Nearby Weather Stations

Elev 3219 ft 36.36 °N, 81.35 °W | Updated 21 seconds ago

Clear
Clear
70.0 °F
Feels Like 70.0 °F
N
2.0
Wind Variable Wind from SE
Gusts 3.0 mph

Today
High -- | Low -- °F
--% Chance of Precip.
Yesterday
High -- | Low -- °F
Precip. -- in
7:21 AM 7:07 PM
First Quarter, 60% visible
Pressure 30.20 in
Visibility 10.0 miles
Clouds Clear
Dew Point 61 °F
Humidity 74%
Rainfall 0.00 in
Snow Depth Not available.
UV 6 out of 12
Pollen 4.30 out of 12
Air Quality Not available.
Flu Activity Not available.
METAR KGEV 021535Z AUTO 00000KT 10SM CLR 20/13 A3020 RMK AO2 T02030133

More Conditions Fewer Conditions

Pressure 30.20 in
Visibility 10.0 miles
Clouds Clear
Dew Point 61 °F
Humidity 74%
Rainfall 0.00 in
Snow Depth Not available.
UV 6 out of 12
Pollen 4.30 out of 12
Air Quality Not available.
Flu Activity Not available.
METAR KGEV 021535Z AUTO 00000KT 10SM CLR 20/13 A3020 RMK AO2 T02030133

More Conditions Fewer Conditions

10-Day Weather Forecast

Almanac

Astronomy

Oct. 02, 2014 Rise Set
Actual Time 7:21 AM EDT 7:07 PM EDT
Civil Twilight 6:55 AM EDT 7:33 PM EDT
Nautical Twilight 6:25 AM EDT 8:03 PM EDT
Astronomical Twilight 5:55 AM EDT 8:33 PM EDT
Moon 3:03 PM EDT 12:46 AM EDT
Length of Visible Light 12h 37m
Length of Day
11h 46m
Tomorrow will be 2m 18s shorter.
First Quarter, 60% of the Moon is Illuminated
Today
First Quarter
Oct 8
Full
Oct 15
Last Quarter
Oct 23
New
Oct 30
First Quarter

Today's Extremes

State Highs State Lows

Community

WunderPhotos

Upload Photos

1,758,276 photos uploaded!

WunderBlogs® & News

Nearby

Snow Depth

Station Depth Elevation
No new snow has been reported.

Earthquake Activity

City Distance Mag. Time & Date
No recent earthquake activity has been reported nearby.
Minimum magnitude displayed is 2.5.

Coastal Water Temperatures

Place Temperature
No Stations Reporting

Nearby Weather Stations